Time;durP1;ratioP1;P1;durP2;ratioP2;P2;SDS_P1;SDS_P2;PMS_P1;PMS_P2;Temp;Humidity;BMP_temperature;BMP_pressure;BME280_temperature;BME280_humidity;BME280_pressure;Samples;Min_cycle;Max_cycle;Signal;HPM_P1;HPM_P2
2024/01/04 00:00:23;;;;;;;5.80;2.40;;;24.10;99.90;;;;;;5015589;28;20033;-53
2024/01/04 00:02:52;;;;;;;5.80;2.47;;;24.10;99.90;;;;;;5023525;28;20041;-53
2024/01/04 00:05:18;;;;;;;3.60;2.58;;;24.10;99.90;;;;;;5012657;28;20115;-53
2024/01/04 00:07:45;;;;;;;3.70;2.30;;;24.10;99.90;;;;;;5012814;28;20021;-52
2024/01/04 00:10:13;;;;;;;3.00;2.28;;;24.00;99.90;;;;;;5012756;28;20470;-53
2024/01/04 00:12:39;;;;;;;4.32;2.25;;;24.10;99.90;;;;;;5011991;28;20033;-53
2024/01/04 00:15:05;;;;;;;2.50;2.20;;;24.00;99.90;;;;;;5012644;28;20462;-52
2024/01/04 00:17:32;;;;;;;3.65;2.10;;;24.00;99.90;;;;;;5012435;28;20014;-53
2024/01/04 00:19:58;;;;;;;4.22;2.40;;;24.00;99.90;;;;;;5012564;28;20040;-53
2024/01/04 00:22:24;;;;;;;2.45;2.10;;;24.00;99.90;;;;;;5012401;28;20022;-53
2024/01/04 00:24:50;;;;;;;4.70;2.25;;;24.00;99.90;;;;;;5012434;28;20018;-53
2024/01/04 00:27:16;;;;;;;2.90;2.13;;;24.00;99.90;;;;;;5012393;28;20073;-53
2024/01/04 00:29:45;;;;;;;3.22;2.33;;;24.00;99.90;;;;;;5012341;28;20021;-53
2024/01/04 00:32:10;;;;;;;3.25;2.22;;;24.00;99.90;;;;;;5011014;28;20026;-53
2024/01/04 00:34:36;;;;;;;4.35;2.40;;;24.00;99.90;;;;;;5012350;28;20022;-53
2024/01/04 00:37:06;;;;;;;4.45;2.30;;;24.00;99.90;;;;;;5012178;28;20526;-53
2024/01/04 00:39:32;;;;;;;3.05;2.13;;;23.90;99.90;;;;;;5012034;28;20068;-53
2024/01/04 00:42:02;;;;;;;2.63;2.15;;;23.90;99.90;;;;;;5011035;28;20129;-53
2024/01/04 00:44:28;;;;;;;4.45;2.08;;;23.90;99.90;;;;;;5012465;28;20123;-53
2024/01/04 00:46:54;;;;;;;4.72;2.08;;;23.90;99.90;;;;;;5012208;28;20077;-53
2024/01/04 00:49:20;;;;;;;2.85;1.70;;;23.80;99.90;;;;;;5012128;28;20501;-53
2024/01/04 00:51:47;;;;;;;3.95;2.42;;;23.80;99.90;;;;;;4998422;28;20014;-53
2024/01/04 00:54:13;;;;;;;2.80;2.13;;;23.90;99.90;;;;;;5012163;28;20037;-52
2024/01/04 00:56:39;;;;;;;3.80;2.22;;;23.80;99.90;;;;;;5010722;28;20026;-52
2024/01/04 00:59:05;;;;;;;3.88;1.83;;;23.80;99.90;;;;;;5012286;28;20028;-53
2024/01/04 01:01:34;;;;;;;3.70;2.40;;;23.80;99.90;;;;;;5023846;28;20049;-52
2024/01/04 01:04:03;;;;;;;2.33;1.80;;;23.80;99.90;;;;;;5013230;28;20030;-53
2024/01/04 01:06:28;;;;;;;2.92;2.08;;;23.80;99.90;;;;;;5012033;28;20458;-53
2024/01/04 01:08:54;;;;;;;2.92;1.85;;;23.80;99.90;;;;;;5012048;28;20484;-52
2024/01/04 01:11:20;;;;;;;3.20;2.13;;;23.70;99.90;;;;;;5012177;28;20053;-52
2024/01/04 01:13:46;;;;;;;3.25;1.95;;;23.70;99.90;;;;;;5011778;28;20525;-53
2024/01/04 01:16:12;;;;;;;1.98;1.70;;;23.70;99.90;;;;;;5011980;28;20381;-52
2024/01/04 01:18:38;;;;;;;4.18;2.15;;;23.70;99.90;;;;;;5012189;28;20018;-53
2024/01/04 01:21:04;;;;;;;3.22;1.55;;;23.70;99.90;;;;;;5012184;28;20028;-53
2024/01/04 01:23:31;;;;;;;3.60;2.22;;;23.70;99.90;;;;;;5013580;28;20104;-53
2024/01/04 01:25:57;;;;;;;2.60;1.70;;;23.70;99.90;;;;;;5015671;28;20026;-52
2024/01/04 01:28:23;;;;;;;2.03;1.60;;;23.70;99.90;;;;;;5015783;28;20394;-53
2024/01/04 01:30:49;;;;;;;5.15;2.45;;;23.70;99.90;;;;;;5014426;28;20022;-53
2024/01/04 01:33:15;;;;;;;2.20;1.58;;;23.60;99.90;;;;;;5016002;28;20055;-53
2024/01/04 01:35:40;;;;;;;3.08;1.98;;;23.60;99.90;;;;;;5015753;28;20030;-53
2024/01/04 01:38:06;;;;;;;2.90;1.48;;;23.60;99.90;;;;;;5015776;28;20021;-53
2024/01/04 01:40:32;;;;;;;2.83;1.73;;;23.60;99.90;;;;;;5015738;28;20041;-53
2024/01/04 01:42:59;;;;;;;1.95;1.52;;;23.60;99.90;;;;;;5015638;28;20021;-53
2024/01/04 01:45:25;;;;;;;2.93;2.10;;;23.60;99.90;;;;;;5015646;28;20037;-53
2024/01/04 01:47:51;;;;;;;2.97;2.10;;;23.50;99.90;;;;;;5015419;28;20022;-53
2024/01/04 01:50:21;;;;;;;3.08;2.08;;;23.50;99.90;;;;;;5015617;28;20073;-53
2024/01/04 01:52:49;;;;;;;5.20;1.77;;;23.50;99.90;;;;;;5015371;28;20022;-53
2024/01/04 01:55:16;;;;;;;3.38;1.70;;;23.50;99.90;;;;;;5015410;28;20042;-53
2024/01/04 01:57:43;;;;;;;2.17;1.65;;;23.50;99.90;;;;;;5015357;28;20045;-53
2024/01/04 02:02:37;;;;;;;2.20;1.88;;;23.50;99.90;;;;;;5021157;28;20663;-51
2024/01/04 02:05:03;;;;;;;2.47;1.70;;;23.50;99.90;;;;;;5035157;28;20021;-51
2024/01/04 02:07:29;;;;;;;2.90;1.83;;;23.50;99.90;;;;;;5034764;28;20070;-51
2024/01/04 02:09:55;;;;;;;3.78;1.80;;;23.40;99.90;;;;;;5034907;28;20029;-51
2024/01/04 02:12:21;;;;;;;2.90;1.98;;;23.40;99.90;;;;;;5034639;28;20017;-53
2024/01/04 02:14:51;;;;;;;3.22;1.85;;;23.40;99.90;;;;;;5033463;28;20539;-52
2024/01/04 02:17:18;;;;;;;3.20;1.88;;;23.40;99.90;;;;;;5034818;28;20025;-52
2024/01/04 02:19:46;;;;;;;2.45;1.92;;;23.40;99.90;;;;;;5034781;28;20009;-51
2024/01/04 02:22:12;;;;;;;;;;;23.40;99.90;;;;;;5033825;28;20026;-51
2024/01/04 02:24:37;;;;;;;3.55;1.52;;;23.40;99.90;;;;;;5034829;28;19905;-50
2024/01/04 02:27:04;;;;;;;2.33;2.08;;;23.40;99.90;;;;;;5034626;28;20029;-51
2024/01/04 02:29:29;;;;;;;2.10;1.83;;;23.40;99.90;;;;;;5034692;28;20053;-50
2024/01/04 02:31:56;;;;;;;2.42;1.55;;;23.30;99.90;;;;;;5034701;28;20049;-51
2024/01/04 02:34:21;;;;;;;2.38;1.58;;;23.30;99.90;;;;;;5033801;28;20025;-51
2024/01/04 02:36:47;;;;;;;1.88;1.50;;;23.30;99.90;;;;;;5034137;28;20515;-52
2024/01/04 02:39:13;;;;;;;1.65;1.48;;;23.30;99.90;;;;;;5034221;28;20024;-51
2024/01/04 02:41:39;;;;;;;2.70;1.80;;;23.30;99.90;;;;;;5034396;28;20017;-52
2024/01/04 02:44:05;;;;;;;2.20;1.45;;;23.30;99.90;;;;;;5034577;28;20021;-51
2024/01/04 02:46:31;;;;;;;3.15;1.75;;;23.30;99.90;;;;;;5033076;28;20021;-51
2024/01/04 02:48:57;;;;;;;1.88;1.52;;;23.30;99.90;;;;;;5032898;28;20017;-51
2024/01/04 02:51:23;;;;;;;2.58;1.52;;;23.20;99.90;;;;;;5034065;28;20030;-51
2024/01/04 02:53:49;;;;;;;2.33;1.77;;;23.20;99.90;;;;;;5034114;28;20025;-51
2024/01/04 02:56:14;;;;;;;3.47;1.73;;;23.20;99.90;;;;;;5033905;28;20092;-51
2024/01/04 02:58:40;;;;;;;2.55;1.58;;;23.20;99.90;;;;;;5034311;28;20021;-52
2024/01/04 03:01:06;;;;;;;1.98;1.52;;;23.20;99.90;;;;;;5034632;28;20049;-51
2024/01/04 03:03:32;;;;;;;1.95;1.65;;;23.20;99.90;;;;;;5033831;28;20021;-50
2024/01/04 03:05:57;;;;;;;2.88;1.70;;;23.20;99.90;;;;;;5032559;28;20026;-52
2024/01/04 03:08:23;;;;;;;2.55;1.80;;;23.20;99.90;;;;;;5033825;28;20492;-53
2024/01/04 03:10:49;;;;;;;2.53;1.73;;;23.10;99.90;;;;;;5033670;28;20021;-51
2024/01/04 03:13:15;;;;;;;3.10;1.60;;;23.20;99.90;;;;;;5033689;28;20032;-51
2024/01/04 03:15:40;;;;;;;4.05;1.75;;;23.20;99.90;;;;;;5033740;28;20103;-51
2024/01/04 03:18:06;;;;;;;3.42;1.83;;;23.10;99.90;;;;;;5033634;28;20018;-51
2024/01/04 03:20:32;;;;;;;3.35;1.92;;;23.10;99.90;;;;;;5033397;28;20022;-51
2024/01/04 03:22:58;;;;;;;2.97;1.50;;;23.10;99.90;;;;;;5033523;28;20462;-51
2024/01/04 03:25:23;;;;;;;3.50;1.70;;;23.10;99.90;;;;;;5033620;28;20473;-51
2024/01/04 03:27:49;;;;;;;3.50;1.40;;;23.10;99.90;;;;;;5033257;28;20373;-51
2024/01/04 03:30:15;;;;;;;1.95;1.60;;;23.10;99.90;;;;;;5015733;28;20029;-51
2024/01/04 03:32:41;;;;;;;2.60;1.77;;;23.10;99.90;;;;;;5033221;28;20032;-50
2024/01/04 03:35:08;;;;;;;2.63;1.88;;;23.10;99.90;;;;;;5033309;28;20033;-51
2024/01/04 03:37:34;;;;;;;2.60;1.88;;;23.10;99.90;;;;;;5033110;28;20537;-51
2024/01/04 03:40:00;;;;;;;3.42;1.80;;;23.10;99.90;;;;;;5033263;28;20065;-51
2024/01/04 03:42:25;;;;;;;5.05;1.35;;;23.00;99.90;;;;;;5031920;28;20113;-51
2024/01/04 03:44:51;;;;;;;3.20;1.60;;;23.00;99.90;;;;;;5033272;28;20041;-50
2024/01/04 03:47:17;;;;;;;2.60;1.70;;;23.00;99.90;;;;;;5032016;28;20025;-50
2024/01/04 03:49:43;;;;;;;1.85;1.27;;;23.00;99.90;;;;;;5032883;28;20021;-50
2024/01/04 03:52:08;;;;;;;1.98;1.40;;;23.00;99.90;;;;;;5032910;28;20021;-50
2024/01/04 03:54:34;;;;;;;3.95;1.67;;;23.00;99.90;;;;;;5032843;28;20026;-50
2024/01/04 03:57:00;;;;;;;4.28;1.70;;;22.90;99.90;;;;;;5032863;28;20036;-51
2024/01/04 03:59:26;;;;;;;3.45;2.25;;;22.90;99.90;;;;;;5031735;28;20032;-50
2024/01/04 04:01:51;;;;;;;2.17;1.50;;;22.90;99.90;;;;;;5033039;28;20136;-51
2024/01/04 04:04:17;;;;;;;4.10;1.90;;;22.90;99.90;;;;;;5032851;28;20392;-51
2024/01/04 04:06:43;;;;;;;2.40;1.85;;;22.90;99.90;;;;;;5032680;28;20079;-51
2024/01/04 04:09:09;;;;;;;2.50;1.40;;;22.90;99.90;;;;;;5032555;28;20037;-51
2024/01/04 04:11:35;;;;;;;4.03;1.60;;;22.80;99.90;;;;;;5032679;28;20049;-51
2024/01/04 04:14:01;;;;;;;3.05;1.55;;;22.80;99.90;;;;;;5032295;28;20071;-51
2024/01/04 04:16:27;;;;;;;3.80;1.98;;;22.80;99.90;;;;;;5032527;28;20369;-50
2024/01/04 04:18:53;;;;;;;8.10;1.63;;;22.80;99.90;;;;;;5032694;28;20105;-50
2024/01/04 04:21:23;;;;;;;3.17;1.48;;;22.80;99.90;;;;;;5032358;28;20022;-51
2024/01/04 04:23:50;;;;;;;4.85;1.73;;;22.80;99.90;;;;;;5032356;28;20028;-51
2024/01/04 04:26:22;;;;;;;3.40;1.50;;;22.80;99.90;;;;;;5032400;28;20021;-51
2024/01/04 04:28:48;;;;;;;2.83;1.83;;;22.80;99.90;;;;;;5032350;28;20155;-50
2024/01/04 04:31:15;;;;;;;2.15;1.40;;;22.70;99.90;;;;;;5032088;28;20022;-50
2024/01/04 04:33:43;;;;;;;2.25;1.70;;;22.70;99.90;;;;;;5032310;28;20116;-50
2024/01/04 04:36:10;;;;;;;3.50;1.48;;;22.70;99.90;;;;;;5031964;28;20034;-52
2024/01/04 04:38:36;;;;;;;4.22;1.50;;;22.70;99.90;;;;;;5032199;28;20100;-50
2024/01/04 04:41:05;;;;;;;1.83;1.27;;;22.70;99.90;;;;;;5031978;28;20536;-51
2024/01/04 04:43:32;;;;;;;2.72;1.23;;;22.70;99.90;;;;;;5032041;28;20039;-50
2024/01/04 04:45:58;;;;;;;2.38;1.50;;;22.70;99.90;;;;;;5030615;28;20108;-50
2024/01/04 04:48:24;;;;;;;3.47;1.75;;;22.70;99.90;;;;;;5032313;28;20060;-50
2024/01/04 04:50:52;;;;;;;3.20;1.40;;;22.70;99.90;;;;;;5032551;28;20025;-50
2024/01/04 04:53:17;;;;;;;4.35;1.60;;;22.70;99.90;;;;;;5031995;28;20024;-50
2024/01/04 04:55:43;;;;;;;2.03;1.30;;;22.70;99.90;;;;;;5031707;28;20033;-50
2024/01/04 04:58:09;;;;;;;2.58;1.75;;;22.60;99.90;;;;;;5031308;28;20393;-50
2024/01/04 05:00:35;;;;;;;2.10;1.30;;;22.60;99.90;;;;;;5032142;28;20041;-50
2024/01/04 05:03:01;;;;;;;3.78;1.33;;;22.60;99.90;;;;;;5031800;28;20036;-50
2024/01/04 05:05:28;;;;;;;4.13;1.38;;;22.60;99.90;;;;;;5031882;28;20482;-50
2024/01/04 05:07:54;;;;;;;1.67;1.58;;;22.60;99.90;;;;;;5031972;28;20022;-50
2024/01/04 05:10:20;;;;;;;3.60;1.60;;;22.60;99.90;;;;;;5031721;28;20025;-50
2024/01/04 05:12:45;;;;;;;2.63;1.55;;;22.60;99.90;;;;;;5031788;28;20029;-50
2024/01/04 05:15:11;;;;;;;3.05;1.50;;;22.60;99.90;;;;;;5031609;28;20124;-50
2024/01/04 05:17:37;;;;;;;2.97;1.70;;;22.60;99.90;;;;;;5031684;28;20017;-51
2024/01/04 05:20:04;;;;;;;2.00;1.20;;;22.60;99.90;;;;;;5031742;28;20029;-50
2024/01/04 05:22:30;;;;;;;7.85;1.70;;;22.60;99.90;;;;;;5031595;28;20013;-50
2024/01/04 05:24:56;;;;;;;2.03;1.50;;;22.60;99.90;;;;;;5031922;28;20032;-50
2024/01/04 05:27:22;;;;;;;1.52;1.17;;;22.60;99.90;;;;;;5031607;28;20088;-50
2024/01/04 05:29:51;;;;;;;2.03;1.50;;;22.60;99.90;;;;;;5031677;28;20022;-50
2024/01/04 05:32:18;;;;;;;2.58;1.52;;;22.60;99.90;;;;;;5031518;28;20021;-50
2024/01/04 05:34:43;;;;;;;2.13;1.20;;;22.60;99.90;;;;;;5031310;28;20032;-50
2024/01/04 05:37:09;;;;;;;2.55;1.40;;;22.60;99.90;;;;;;5031430;28;20025;-50
2024/01/04 05:39:35;;;;;;;3.08;1.10;;;22.60;99.90;;;;;;5031387;28;20013;-50
2024/01/04 05:42:01;;;;;;;1.80;1.27;;;22.60;99.90;;;;;;5031455;28;20033;-50
2024/01/04 05:44:27;;;;;;;2.72;1.60;;;22.60;99.90;;;;;;5031529;28;20021;-50
2024/01/04 05:46:53;;;;;;;2.97;1.40;;;22.60;99.90;;;;;;5013780;28;20036;-50
2024/01/04 05:49:19;;;;;;;2.28;1.25;;;22.60;99.90;;;;;;5030086;28;20132;-51
2024/01/04 05:51:44;;;;;;;2.88;1.60;;;22.60;99.90;;;;;;5031109;28;20363;-51
2024/01/04 05:54:10;;;;;;;1.98;1.50;;;22.60;99.90;;;;;;5031540;28;20028;-50
2024/01/04 05:56:36;;;;;;;2.22;1.40;;;22.60;99.90;;;;;;5031162;28;20036;-51
2024/01/04 05:59:02;;;;;;;3.42;1.30;;;22.60;99.90;;;;;;5031254;28;20024;-50
2024/01/04 06:01:29;;;;;;;2.42;1.30;;;22.60;99.90;;;;;;5013788;28;20092;-50
2024/01/04 06:03:54;;;;;;;1.83;1.20;;;22.60;99.90;;;;;;5023658;28;20022;-51
2024/01/04 06:06:20;;;;;;;2.45;1.67;;;22.60;99.90;;;;;;5009496;28;20072;-50
2024/01/04 06:08:46;;;;;;;2.67;1.20;;;22.60;99.90;;;;;;5007834;28;20021;-51
2024/01/04 06:11:12;;;;;;;2.95;1.50;;;22.60;99.90;;;;;;5012345;28;20462;-49
2024/01/04 06:13:38;;;;;;;2.05;1.30;;;22.60;99.90;;;;;;5012857;28;20037;-50
2024/01/04 06:16:07;;;;;;;3.20;1.50;;;22.60;99.90;;;;;;5012813;28;20092;-50
2024/01/04 06:18:34;;;;;;;3.83;1.38;;;22.60;99.90;;;;;;5012873;28;20025;-51
2024/01/04 06:21:00;;;;;;;3.30;1.63;;;22.60;99.90;;;;;;5014478;28;20030;-51
2024/01/04 06:23:27;;;;;;;3.33;1.30;;;22.60;99.90;;;;;;5014989;28;20026;-50
2024/01/04 06:25:53;;;;;;;2.58;1.33;;;22.50;99.90;;;;;;5014655;28;20030;-50
2024/01/04 06:28:19;;;;;;;2.13;1.67;;;22.50;99.90;;;;;;5014856;28;20022;-50
2024/01/04 06:30:46;;;;;;;2.35;1.23;;;22.50;99.90;;;;;;5014514;28;20105;-50
2024/01/04 06:33:11;;;;;;;2.22;1.52;;;22.50;99.90;;;;;;5014752;28;20061;-50
2024/01/04 06:35:37;;;;;;;2.95;1.27;;;22.50;99.90;;;;;;5014688;28;20061;-50
2024/01/04 06:38:07;;;;;;;1.23;1.00;;;22.50;99.90;;;;;;5014408;28;20025;-50
2024/01/04 06:40:40;;;;;;;2.30;1.20;;;22.50;99.90;;;;;;5014454;28;20026;-51
2024/01/04 06:43:09;;;;;;;4.15;1.85;;;22.50;99.90;;;;;;5014179;28;20541;-50
2024/01/04 06:45:38;;;;;;;2.78;1.60;;;22.50;99.90;;;;;;5014412;28;20439;-51
2024/01/04 06:48:04;;;;;;;1.80;1.20;;;22.50;99.90;;;;;;5014121;28;20448;-50
2024/01/04 06:50:30;;;;;;;2.47;1.33;;;22.50;99.90;;;;;;5014237;28;20022;-50
2024/01/04 06:52:57;;;;;;;4.22;1.40;;;22.50;99.90;;;;;;5014115;28;20024;-51
2024/01/04 06:55:23;;;;;;;6.03;1.92;;;22.50;99.90;;;;;;5013955;28;20041;-50
2024/01/04 06:57:49;;;;;;;2.22;1.73;;;22.50;99.90;;;;;;5013863;28;20089;-51
2024/01/04 07:00:18;;;;;;;2.38;1.42;;;22.50;99.90;;;;;;5015465;28;20118;-51
2024/01/04 07:02:43;;;;;;;4.38;1.63;;;22.50;99.90;;;;;;5033985;28;20100;-51
2024/01/04 07:05:11;;;;;;;2.05;1.48;;;22.50;99.90;;;;;;5033854;28;20066;-50
2024/01/04 07:07:38;;;;;;;3.53;1.92;;;22.50;99.90;;;;;;5033959;28;20014;-50
2024/01/04 07:10:04;;;;;;;2.60;1.80;;;22.50;99.90;;;;;;5033817;28;20527;-49
2024/01/04 07:12:30;;;;;;;3.42;1.35;;;22.50;99.90;;;;;;5032789;28;20378;-50
2024/01/04 07:14:56;;;;;;;1.92;1.50;;;22.50;99.90;;;;;;5032578;28;20042;-50
2024/01/04 07:17:23;;;;;;;3.95;1.30;;;22.50;99.90;;;;;;5033605;28;20029;-50
2024/01/04 07:19:49;;;;;;;2.30;1.30;;;22.50;99.90;;;;;;5033497;28;20490;-51
2024/01/04 07:22:15;;;;;;;1.45;1.23;;;22.50;99.90;;;;;;5033191;28;20425;-49
2024/01/04 07:24:41;;;;;;;2.38;1.50;;;22.50;99.90;;;;;;5033399;28;20474;-50
2024/01/04 07:27:09;;;;;;;4.30;1.80;;;22.50;99.90;;;;;;5033561;28;20366;-50
2024/01/04 07:29:35;;;;;;;4.47;1.88;;;22.50;99.90;;;;;;5033479;28;20018;-50
2024/01/04 07:32:00;;;;;;;3.35;1.60;;;22.50;99.90;;;;;;5033554;28;20041;-50
2024/01/04 07:34:27;;;;;;;3.97;1.42;;;22.50;99.90;;;;;;5033190;28;20029;-50
2024/01/04 07:36:52;;;;;;;4.03;1.70;;;22.50;99.90;;;;;;5033296;28;20371;-50
2024/01/04 07:39:19;;;;;;;2.60;1.73;;;22.50;99.90;;;;;;5031880;28;20028;-50
2024/01/04 07:41:44;;;;;;;3.45;1.40;;;22.50;99.90;;;;;;5033410;28;20021;-50
2024/01/04 07:44:11;;;;;;;2.45;1.45;;;22.50;99.90;;;;;;5033301;28;20044;-50
2024/01/04 07:46:37;;;;;;;2.72;1.73;;;22.50;99.90;;;;;;5033038;28;20021;-49
2024/01/04 07:49:10;;;;;;;2.65;1.77;;;22.50;99.90;;;;;;5033000;28;20093;-50
2024/01/04 07:51:37;;;;;;;2.95;1.70;;;22.50;99.90;;;;;;5032866;28;20017;-50
2024/01/04 07:54:02;;;;;;;2.90;1.67;;;22.50;99.90;;;;;;5033067;28;20429;-50
2024/01/04 07:56:28;;;;;;;4.28;1.90;;;22.50;99.90;;;;;;5031761;28;20246;-51
2024/01/04 07:58:54;;;;;;;2.97;1.55;;;22.50;99.90;;;;;;5032893;28;20418;-51
2024/01/04 08:01:20;;;;;;;2.00;1.50;;;22.50;99.90;;;;;;5031226;28;20132;-52
2024/01/04 08:03:46;;;;;;;1.77;1.52;;;22.50;99.90;;;;;;5032722;28;20094;-51
2024/01/04 08:06:11;;;;;;;4.88;2.00;;;22.50;99.90;;;;;;5032867;28;20104;-51
2024/01/04 08:08:37;;;;;;;2.00;1.55;;;22.50;99.90;;;;;;5032622;28;20484;-51
2024/01/04 08:11:03;;;;;;;2.83;1.80;;;22.60;99.90;;;;;;5032782;28;20056;-51
2024/01/04 08:13:29;;;;;;;2.75;1.35;;;22.60;99.90;;;;;;5032781;28;20090;-50
2024/01/04 08:15:55;;;;;;;4.20;1.73;;;22.50;99.90;;;;;;5032450;28;20065;-51
2024/01/04 08:18:21;;;;;;;3.95;1.92;;;22.50;99.90;;;;;;5032682;28;20045;-51
2024/01/04 08:20:48;;;;;;;2.40;1.80;;;22.60;99.90;;;;;;5032432;28;20013;-51
2024/01/04 08:23:14;;;;;;;2.35;1.45;;;22.60;99.90;;;;;;5031126;28;20119;-51
2024/01/04 08:25:41;;;;;;;2.75;1.52;;;22.60;99.90;;;;;;5032262;28;20029;-51
2024/01/04 08:28:09;;;;;;;2.33;1.10;;;22.60;99.90;;;;;;5032440;28;20021;-51
2024/01/04 08:30:35;;;;;;;2.60;1.30;;;22.60;99.90;;;;;;5032387;28;20269;-51
2024/01/04 08:33:01;;;;;;;3.63;1.40;;;22.60;99.90;;;;;;5031794;28;20025;-50
2024/01/04 08:35:27;;;;;;;3.50;1.98;;;22.50;99.90;;;;;;5032078;28;20033;-50
2024/01/04 08:37:52;;;;;;;3.60;1.55;;;22.60;99.90;;;;;;5031945;28;20053;-50
2024/01/04 08:40:18;;;;;;;1.90;1.38;;;22.60;99.90;;;;;;5030809;28;20546;-50
2024/01/04 08:42:44;;;;;;;3.42;1.70;;;22.60;99.90;;;;;;5032096;28;20025;-50
2024/01/04 08:45:10;;;;;;;3.42;1.83;;;22.60;99.90;;;;;;5032259;28;20147;-50
2024/01/04 08:47:37;;;;;;;4.07;1.83;;;22.60;99.90;;;;;;5032118;28;20024;-50
2024/01/04 08:50:03;;;;;;;3.10;1.70;;;22.60;99.90;;;;;;5032107;28;20021;-50
2024/01/04 08:52:29;;;;;;;3.58;1.60;;;22.50;99.90;;;;;;5031983;28;20378;-51
2024/01/04 08:54:55;;;;;;;4.03;1.60;;;22.50;99.90;;;;;;5031691;28;20103;-51
2024/01/04 08:57:22;;;;;;;6.60;1.83;;;22.50;99.90;;;;;;5032042;28;20029;-51
2024/01/04 08:59:47;;;;;;;4.03;1.65;;;22.60;99.90;;;;;;5031741;28;20080;-51
2024/01/04 09:02:13;;;;;;;1.92;1.60;;;22.60;99.90;;;;;;5031521;28;20054;-51
2024/01/04 09:04:40;;;;;;;1.80;1.50;;;22.60;99.90;;;;;;5031708;28;20077;-51
2024/01/04 09:07:09;;;;;;;6.57;1.80;;;22.60;99.90;;;;;;5031751;28;20068;-51
2024/01/04 09:09:35;;;;;;;3.35;1.50;;;22.60;99.90;;;;;;5032064;28;20024;-51
2024/01/04 09:12:02;;;;;;;2.45;1.70;;;22.50;99.90;;;;;;5031818;28;20029;-51
2024/01/04 09:14:27;;;;;;;3.13;1.55;;;22.60;99.90;;;;;;5031723;28;20017;-51
2024/01/04 09:16:53;;;;;;;2.85;1.60;;;22.60;99.90;;;;;;5031653;28;20029;-50
2024/01/04 09:19:20;;;;;;;2.15;1.50;;;22.50;99.90;;;;;;5031400;28;20049;-51
2024/01/04 09:21:50;;;;;;;4.37;1.70;;;22.50;99.90;;;;;;5031569;28;20393;-51
2024/01/04 09:24:20;;;;;;;2.97;1.90;;;22.60;99.90;;;;;;5031554;28;20021;-51
2024/01/04 09:26:46;;;;;;;5.78;1.50;;;22.50;99.90;;;;;;5031609;28;20428;-51
2024/01/04 09:29:13;;;;;;;3.20;1.70;;;22.60;99.90;;;;;;5031473;28;20387;-51
2024/01/04 09:31:42;;;;;;;2.38;1.40;;;22.60;99.90;;;;;;5031507;28;20022;-51
2024/01/04 09:34:08;;;;;;;3.55;1.85;;;22.60;99.90;;;;;;5031360;28;20057;-51
2024/01/04 09:36:34;;;;;;;2.60;1.40;;;22.60;99.90;;;;;;5031637;28;20054;-50
2024/01/04 09:39:03;;;;;;;2.92;1.65;;;22.50;99.90;;;;;;5030179;28;20025;-51
2024/01/04 09:41:33;;;;;;;3.33;1.50;;;22.60;99.90;;;;;;5029948;28;20072;-51
2024/01/04 09:44:03;;;;;;;1.67;1.17;;;22.60;99.90;;;;;;5032158;28;20133;-50
2024/01/04 09:46:39;;;;;;;2.20;1.70;;;22.60;99.90;;;;;;5033919;28;20029;-51
2024/01/04 09:49:06;;;;;;;2.65;1.38;;;22.50;99.90;;;;;;5035484;28;20029;-51
2024/01/04 09:51:34;;;;;;;3.13;1.80;;;22.60;99.90;;;;;;5035310;28;20386;-50
2024/01/04 09:54:01;;;;;;;3.67;1.15;;;22.50;99.90;;;;;;5035028;28;20137;-50
2024/01/04 09:56:29;;;;;;;4.25;1.80;;;22.50;99.90;;;;;;5035110;28;20401;-51
2024/01/04 09:58:55;;;;;;;1.85;1.20;;;22.50;99.90;;;;;;5035074;28;20078;-50
2024/01/04 10:01:35;;;;;;;2.50;1.52;;;22.50;99.90;;;;;;5034879;28;20124;-50
2024/01/04 10:04:04;;;;;;;2.65;1.67;;;22.50;99.90;;;;;;5035058;28;20414;-50
2024/01/04 10:06:34;;;;;;;5.95;1.50;;;22.50;99.90;;;;;;5035221;28;20013;-50
2024/01/04 10:09:21;;;;;;;3.45;1.42;;;22.50;99.90;;;;;;5033825;28;20029;-50
2024/01/04 10:12:08;;;;;;;3.13;1.90;;;22.50;99.90;;;;;;5034952;28;20116;-50
2024/01/04 10:14:35;;;;;;;3.58;1.67;;;22.50;99.90;;;;;;5010983;28;20027;-50
2024/01/04 10:17:02;;;;;;;2.92;1.50;;;22.50;99.90;;;;;;5034699;28;20041;-49
2024/01/04 10:19:30;;;;;;;4.95;1.88;;;22.50;99.90;;;;;;5007203;28;20025;-49
2024/01/04 10:22:08;;;;;;;2.83;1.65;;;22.60;99.90;;;;;;5034656;28;20052;-50
2024/01/04 10:24:37;;;;;;;5.15;1.63;;;22.50;99.90;;;;;;5033902;28;20041;-50
2024/01/04 10:27:04;;;;;;;3.50;1.85;;;22.50;99.90;;;;;;5034595;28;20025;-51
2024/01/04 10:29:31;;;;;;;4.95;1.55;;;22.50;99.90;;;;;;5033290;28;20473;-50
2024/01/04 10:32:08;;;;;;;3.03;1.80;;;22.50;99.90;;;;;;5033315;28;20428;-50
2024/01/04 10:34:34;;;;;;;2.42;1.52;;;22.50;99.90;;;;;;5034692;28;20029;-50
2024/01/04 10:37:09;;;;;;;1.90;1.50;;;22.50;99.90;;;;;;5033220;28;20698;-50
2024/01/04 10:39:39;;;;;;;3.08;2.00;;;22.60;99.90;;;;;;5034591;28;20026;-50
2024/01/04 10:42:05;;;;;;;2.88;1.65;;;22.60;99.90;;;;;;5034521;28;20048;-50
2024/01/04 10:44:33;;;;;;;3.17;1.90;;;22.60;99.90;;;;;;5034152;28;20036;-50
2024/01/04 10:47:00;;;;;;;3.05;1.23;;;22.50;99.90;;;;;;5034278;28;20025;-50
2024/01/04 10:49:26;;;;;;;;;;;22.60;99.90;;;;;;5034508;28;20032;-50
2024/01/04 10:51:54;;;;;;;1.85;1.55;;;22.60;99.90;;;;;;5032853;28;19908;-50
2024/01/04 10:54:22;;;;;;;2.92;1.60;;;22.60;99.90;;;;;;5034023;28;20105;-50
2024/01/04 10:56:49;;;;;;;3.47;1.48;;;22.60;99.90;;;;;;5033289;28;20104;-49
2024/01/04 10:59:17;;;;;;;5.32;1.75;;;22.50;99.90;;;;;;5034081;28;20021;-50
2024/01/04 11:01:45;;;;;;;2.40;1.73;;;22.50;99.90;;;;;;5019955;28;20046;-50
2024/01/04 11:04:11;;;;;;;;;;;22.60;99.90;;;;;;5029898;28;20068;-48
2024/01/04 11:06:42;;;;;;;2.85;1.83;;;22.60;99.90;;;;;;5026564;28;19905;-49
2024/01/04 11:09:07;;;;;;;3.92;2.10;;;22.60;99.90;;;;;;5033994;28;20014;-49
2024/01/04 11:11:35;;;;;;;3.67;1.33;;;22.60;99.90;;;;;;5033806;28;20029;-49
2024/01/04 11:14:04;;;;;;;2.38;1.23;;;22.60;99.90;;;;;;5033432;28;20025;-49
2024/01/04 11:16:49;;;;;;;4.70;1.85;;;22.60;99.90;;;;;;5033736;28;20040;-50
2024/01/04 11:19:33;;;;;;;2.17;1.40;;;22.60;99.90;;;;;;5033654;28;20014;-48
2024/01/04 11:22:17;;;;;;;3.90;1.92;;;22.60;99.90;;;;;;5033491;28;20877;-49
2024/01/04 11:25:29;;;;;;;3.28;1.73;;;22.60;99.90;;;;;;5008440;28;20029;-48
2024/01/04 11:27:55;;;;;;;2.58;1.33;;;22.60;99.90;;;;;;5013506;28;20168;-49
2024/01/04 11:30:21;;;;;;;3.20;1.85;;;22.60;99.90;;;;;;5033528;28;20098;-49
2024/01/04 11:32:48;;;;;;;2.33;1.63;;;22.60;99.90;;;;;;5033297;28;20027;-49
2024/01/04 11:35:15;;;;;;;4.03;1.63;;;22.60;99.90;;;;;;5033324;28;20029;-48
2024/01/04 11:37:45;;;;;;;3.75;1.58;;;22.60;99.90;;;;;;5033439;28;20477;-49
2024/01/04 11:40:11;;;;;;;3.80;1.55;;;22.60;99.90;;;;;;5033247;28;20029;-48
2024/01/04 11:42:38;;;;;;;5.00;1.42;;;22.60;99.90;;;;;;5032034;28;20080;-49
2024/01/04 11:45:06;;;;;;;;;;;22.60;99.90;;;;;;5032619;28;20029;-49
2024/01/04 11:47:36;;;;;;;2.35;1.40;;;22.60;99.90;;;;;;5031924;28;19912;-49
2024/01/04 11:50:03;;;;;;;4.10;2.03;;;22.60;99.90;;;;;;5032931;28;20033;-51
2024/01/04 11:52:30;;;;;;;4.57;2.00;;;22.60;99.90;;;;;;5033060;28;20096;-49
2024/01/04 11:54:56;;;;;;;3.28;2.08;;;22.60;99.90;;;;;;5031648;28;20033;-49
2024/01/04 11:57:23;;;;;;;4.38;1.58;;;22.70;99.90;;;;;;5032856;28;20040;-49
2024/01/04 11:59:50;;;;;;;4.43;2.28;;;22.70;99.90;;;;;;5032843;28;20021;-49
2024/01/04 12:02:22;;;;;;;7.88;2.83;;;22.60;99.90;;;;;;5032552;28;20497;-49
2024/01/04 12:04:48;;;;;;;4.40;1.88;;;22.60;99.90;;;;;;5032966;28;20036;-49
2024/01/04 12:07:14;;;;;;;3.88;2.00;;;22.60;99.90;;;;;;5032142;28;20087;-49
2024/01/04 12:09:41;;;;;;;5.45;2.13;;;22.70;99.90;;;;;;5032453;28;20474;-49
2024/01/04 12:12:10;;;;;;;4.95;1.67;;;22.70;99.90;;;;;;5032694;28;20021;-49
2024/01/04 12:14:36;;;;;;;3.72;2.00;;;22.60;99.90;;;;;;5032694;28;20434;-49
2024/01/04 12:17:02;;;;;;;3.10;1.77;;;22.70;99.90;;;;;;5032528;28;20385;-49
2024/01/04 12:19:28;;;;;;;3.28;1.90;;;22.70;99.90;;;;;;5032770;28;20025;-49
2024/01/04 12:21:55;;;;;;;5.22;2.00;;;22.70;99.90;;;;;;5032448;28;20466;-49
2024/01/04 12:24:21;;;;;;;2.85;1.83;;;22.70;99.90;;;;;;5032337;28;20010;-49
2024/01/04 12:26:48;;;;;;;4.07;2.22;;;22.70;99.90;;;;;;5031153;28;20013;-51
2024/01/04 12:29:14;;;;;;;6.13;1.90;;;22.70;99.90;;;;;;5032289;28;20057;-49
2024/01/04 12:31:40;;;;;;;3.47;1.73;;;22.70;99.90;;;;;;5032500;28;20112;-50
2024/01/04 12:34:12;;;;;;;5.95;1.90;;;22.70;99.90;;;;;;5032515;28;20113;-50
2024/01/04 12:36:38;;;;;;;4.22;1.85;;;22.70;99.90;;;;;;5031510;28;20389;-51
2024/01/04 12:39:12;;;;;;;6.70;2.25;;;22.70;99.90;;;;;;5032493;28;20025;-51
2024/01/04 12:41:39;;;;;;;4.13;1.90;;;22.70;99.90;;;;;;5004606;28;20529;-50
2024/01/04 12:44:07;;;;;;;4.90;2.20;;;22.70;99.90;;;;;;5032435;28;20028;-51
2024/01/04 12:46:33;;;;;;;5.07;2.25;;;22.70;99.90;;;;;;5032087;28;20429;-53
2024/01/04 12:49:09;;;;;;;7.25;2.00;;;22.70;99.90;;;;;;5032180;28;20034;-50